createdAt,value
2019-01-29T00:00:00.344Z,21.22
2019-01-29T00:01:00.342Z,21.21
2019-01-29T00:02:00.322Z,21.21
2019-01-29T00:03:00.313Z,21.21
2019-01-29T00:04:00.337Z,21.22
2019-01-29T00:05:00.288Z,21.22
2019-01-29T00:06:00.279Z,21.21
2019-01-29T00:07:00.270Z,21.22
2019-01-29T00:08:00.265Z,21.22
2019-01-29T00:09:00.251Z,21.22
2019-01-29T00:10:00.287Z,21.22
2019-01-29T00:11:00.230Z,21.21
2019-01-29T00:12:00.219Z,21.20
2019-01-29T00:13:00.214Z,21.22
2019-01-29T00:14:00.190Z,21.22
2019-01-29T00:15:00.251Z,21.22
2019-01-29T00:16:00.295Z,21.24
2019-01-29T00:17:00.160Z,21.21
2019-01-29T00:18:00.147Z,21.22
2019-01-29T00:19:00.143Z,21.22
2019-01-29T00:20:00.259Z,21.21
2019-01-29T00:21:00.116Z,21.22
2019-01-29T00:22:00.146Z,21.22
2019-01-29T00:23:00.097Z,21.22
2019-01-29T00:24:00.083Z,21.24
2019-01-29T00:25:00.196Z,21.22
2019-01-29T00:26:00.068Z,21.22
2019-01-29T00:27:00.056Z,21.22
2019-01-29T00:28:00.081Z,21.24
2019-01-29T00:29:00.034Z,21.22
2019-01-29T00:30:00.022Z,21.22
2019-01-29T00:31:00.010Z,21.22
2019-01-29T00:31:59.994Z,21.22
2019-01-29T00:32:59.988Z,21.22
2019-01-29T00:34:00.007Z,21.24
2019-01-29T00:34:59.962Z,21.22
2019-01-29T00:35:59.951Z,21.24
2019-01-29T00:36:59.946Z,21.24
2019-01-29T00:37:59.947Z,21.22
2019-01-29T00:38:59.955Z,21.24
2019-01-29T00:39:59.909Z,21.22
2019-01-29T00:40:59.901Z,21.24
2019-01-29T00:42:00.176Z,21.22
2019-01-29T00:42:59.876Z,21.24
2019-01-29T00:43:59.890Z,21.22
2019-01-29T00:44:59.853Z,21.24
2019-01-29T00:45:59.849Z,21.24
2019-01-29T00:46:59.834Z,21.24
2019-01-29T00:47:59.857Z,21.24
2019-01-29T00:48:59.811Z,21.24
2019-01-29T00:49:59.804Z,21.24
2019-01-29T00:50:59.793Z,21.24
2019-01-29T00:51:59.775Z,21.24
2019-01-29T00:52:59.769Z,21.25
2019-01-29T00:53:59.788Z,21.24
2019-01-29T00:54:59.746Z,21.24
2019-01-29T00:55:59.735Z,21.24
2019-01-29T00:56:59.723Z,21.24
2019-01-29T00:57:59.716Z,21.22
2019-01-29T00:58:59.736Z,21.24
2019-01-29T00:59:59.687Z,21.25
2019-01-29T01:00:59.679Z,21.22
2019-01-29T01:01:59.670Z,21.24
2019-01-29T01:02:59.659Z,21.22
2019-01-29T01:03:59.675Z,21.25
2019-01-29T01:04:59.639Z,21.24
2019-01-29T01:05:59.624Z,21.22
2019-01-29T01:06:59.618Z,21.24
2019-01-29T01:07:59.634Z,21.24
2019-01-29T01:08:59.588Z,21.22
2019-01-29T01:09:59.611Z,21.22
2019-01-29T01:10:59.592Z,21.24
2019-01-29T01:11:59.581Z,21.22
2019-01-29T01:12:59.548Z,21.22
2019-01-29T01:13:59.538Z,21.22
2019-01-29T01:14:59.528Z,21.22
2019-01-29T01:15:59.546Z,21.22
2019-01-29T01:16:59.502Z,21.21
2019-01-29T01:17:59.493Z,21.22
2019-01-29T01:18:59.479Z,21.22
2019-01-29T01:19:59.473Z,21.22
2019-01-29T01:20:59.496Z,21.22
2019-01-29T01:21:59.448Z,21.21
2019-01-29T01:22:59.435Z,21.22
2019-01-29T01:23:59.427Z,21.21
2019-01-29T01:24:59.421Z,21.22
2019-01-29T01:25:59.407Z,21.22
2019-01-29T01:26:59.431Z,21.22
2019-01-29T01:27:59.386Z,21.21
2019-01-29T01:28:59.375Z,21.22
2019-01-29T01:29:59.364Z,21.22
2019-01-29T01:30:59.355Z,21.21
2019-01-29T01:31:59.342Z,21.21
2019-01-29T01:32:59.567Z,21.21
2019-01-29T01:33:59.315Z,21.22
2019-01-29T01:34:59.309Z,21.20
2019-01-29T01:35:59.293Z,21.20
2019-01-29T01:36:59.290Z,21.21
2019-01-29T01:37:59.272Z,21.20
2019-01-29T01:38:59.303Z,21.21
2019-01-29T01:39:59.266Z,21.20
2019-01-29T01:40:59.246Z,21.20
2019-01-29T01:41:59.234Z,21.18
2019-01-29T01:42:59.217Z,21.20
2019-01-29T01:43:59.306Z,21.21
2019-01-29T01:44:59.195Z,21.20
2019-01-29T01:45:59.190Z,21.21
2019-01-29T01:46:59.178Z,21.21
2019-01-29T01:47:59.167Z,21.20
2019-01-29T01:48:59.159Z,21.21
2019-01-29T01:49:59.181Z,21.20
2019-01-29T01:50:59.130Z,21.21
2019-01-29T01:51:59.125Z,21.20
2019-01-29T01:52:59.656Z,21.18
2019-01-29T01:53:59.099Z,21.18
2019-01-29T01:54:59.093Z,21.20
2019-01-29T01:55:59.298Z,21.18
2019-01-29T01:56:59.071Z,21.18
2019-01-29T01:57:59.094Z,21.20
2019-01-29T01:58:59.046Z,21.18
2019-01-29T01:59:59.038Z,21.20
2019-01-29T02:00:59.022Z,21.18
2019-01-29T02:01:59.043Z,21.18
2019-01-29T02:02:59.002Z,21.18
2019-01-29T02:03:58.989Z,21.18
2019-01-29T02:04:58.980Z,21.18
2019-01-29T02:05:58.971Z,21.17
2019-01-29T02:06:58.961Z,21.18
2019-01-29T02:07:58.984Z,21.17
2019-01-29T02:08:58.931Z,21.18
2019-01-29T02:09:58.927Z,21.17
2019-01-29T02:10:58.916Z,21.17
2019-01-29T02:11:58.898Z,21.17
2019-01-29T02:12:58.891Z,21.18
2019-01-29T02:13:59.116Z,21.17
2019-01-29T02:14:58.867Z,21.17
2019-01-29T02:15:58.859Z,21.18
2019-01-29T02:16:58.845Z,21.17
2019-01-29T02:17:58.837Z,21.18
2019-01-29T02:18:58.829Z,21.17
2019-01-29T02:19:58.848Z,21.17
2019-01-29T02:20:58.804Z,21.17
2019-01-29T02:21:58.795Z,21.17
2019-01-29T02:22:58.780Z,21.18
2019-01-29T02:23:58.774Z,21.18
2019-01-29T02:24:58.763Z,21.17
2019-01-29T02:25:58.784Z,21.15
2019-01-29T02:26:58.733Z,21.17
2019-01-29T02:27:58.727Z,21.18
2019-01-29T02:28:58.717Z,21.17
2019-01-29T02:29:58.704Z,21.18
2019-01-29T02:30:58.723Z,21.17
2019-01-29T02:31:58.684Z,21.18
2019-01-29T02:32:58.671Z,21.17
2019-01-29T02:33:58.662Z,21.18
2019-01-29T02:34:58.646Z,21.18
2019-01-29T02:35:58.642Z,21.20
2019-01-29T02:36:58.866Z,21.18
2019-01-29T02:37:58.616Z,21.20
2019-01-29T02:38:58.612Z,21.18
2019-01-29T02:39:58.597Z,21.18
2019-01-29T02:40:58.588Z,21.20
2019-01-29T02:41:58.573Z,21.20
2019-01-29T02:42:58.597Z,21.18
2019-01-29T02:43:58.551Z,21.18
2019-01-29T02:44:58.543Z,21.20
2019-01-29T02:45:58.526Z,21.20
2019-01-29T02:46:58.514Z,21.20
2019-01-29T02:47:58.537Z,21.20
2019-01-29T02:48:58.497Z,21.20
2019-01-29T02:49:58.488Z,21.20
2019-01-29T02:50:58.693Z,21.20
2019-01-29T02:51:58.463Z,21.21
2019-01-29T02:52:58.448Z,21.20
2019-01-29T02:53:58.442Z,21.20
2019-01-29T02:56:21.120Z,21.21
2019-01-29T02:57:27.882Z,21.21
2019-01-29T02:58:06.876Z,21.20
2019-01-29T02:59:06.859Z,21.21
2019-01-29T03:00:06.846Z,21.21
2019-01-29T03:01:06.862Z,21.20
2019-01-29T03:02:06.855Z,21.20
2019-01-29T03:03:06.813Z,21.20
2019-01-29T03:04:06.801Z,21.21
2019-01-29T03:05:06.790Z,21.20
2019-01-29T03:06:06.800Z,21.20
2019-01-29T03:07:06.768Z,21.20
2019-01-29T03:08:06.802Z,21.18
2019-01-29T03:09:27.748Z,21.21
2019-01-29T03:11:36.224Z,21.21
2019-01-29T03:12:36.210Z,21.18
2019-01-29T03:13:15.205Z,21.18
2019-01-29T03:14:36.189Z,21.18
2019-01-29T03:15:36.177Z,21.18
2019-01-29T03:18:32.205Z,21.20
2019-01-29T03:19:32.159Z,21.20
2019-01-29T03:20:32.148Z,21.18
2019-01-29T03:21:32.137Z,21.18
2019-01-29T03:22:32.126Z,21.18
2019-01-29T03:23:32.118Z,21.17
2019-01-29T03:24:32.141Z,21.17
2019-01-29T03:25:32.097Z,21.18
2019-01-29T03:26:32.083Z,21.18
2019-01-29T03:27:32.073Z,21.17
2019-01-29T03:28:32.063Z,21.17
2019-01-29T03:29:32.050Z,21.17
2019-01-29T03:30:32.341Z,21.17
2019-01-29T03:31:32.029Z,21.17
2019-01-29T03:32:32.018Z,21.17
2019-01-29T03:33:32.010Z,21.14
2019-01-29T03:34:31.992Z,21.15
2019-01-29T03:35:31.984Z,21.17
2019-01-29T03:36:32.011Z,21.15
2019-01-29T03:37:31.964Z,21.15
2019-01-29T03:38:31.951Z,21.14
2019-01-29T03:39:31.977Z,21.15
2019-01-29T03:40:31.929Z,21.15
2019-01-29T03:41:31.919Z,21.14
2019-01-29T03:42:31.909Z,21.14
2019-01-29T03:43:31.896Z,21.15
2019-01-29T03:44:31.883Z,21.12
2019-01-29T03:45:31.908Z,21.14
2019-01-29T03:46:31.894Z,21.12
2019-01-29T03:47:31.851Z,21.12
2019-01-29T03:48:31.842Z,21.14
2019-01-29T03:49:31.829Z,21.12
2019-01-29T03:50:31.818Z,21.12
2019-01-29T03:51:31.842Z,21.12
2019-01-29T03:52:31.796Z,21.12
2019-01-29T03:53:37.988Z,21.12
2019-01-29T03:54:32.774Z,21.12
2019-01-29T03:55:31.761Z,21.12
2019-01-29T03:56:31.789Z,21.11
2019-01-29T03:57:31.740Z,21.11
2019-01-29T03:58:31.731Z,21.12
2019-01-29T03:59:31.720Z,21.12
2019-01-29T04:00:31.709Z,21.12
2019-01-29T04:01:31.699Z,21.12
2019-01-29T04:02:31.748Z,21.12
2019-01-29T04:03:31.674Z,21.12
2019-01-29T04:04:31.665Z,21.11
2019-01-29T04:05:31.653Z,21.12
2019-01-29T04:06:31.642Z,21.11
2019-01-29T04:07:31.629Z,21.12
2019-01-29T04:08:31.655Z,21.11
2019-01-29T04:09:31.608Z,21.11
2019-01-29T04:10:31.597Z,21.11
2019-01-29T04:11:31.589Z,21.11
2019-01-29T04:12:31.576Z,21.12
2019-01-29T04:13:31.564Z,21.12
2019-01-29T04:14:31.788Z,21.12
2019-01-29T04:15:31.545Z,21.11
2019-01-29T04:16:31.531Z,21.11
2019-01-29T04:17:31.525Z,21.11
2019-01-29T04:18:31.511Z,21.11
2019-01-29T04:19:31.498Z,21.12
2019-01-29T04:20:31.520Z,21.11
2019-01-29T04:21:31.476Z,21.11
2019-01-29T04:22:31.466Z,21.11
2019-01-29T04:23:31.454Z,21.11
2019-01-29T04:24:31.446Z,21.11
2019-01-29T04:25:31.658Z,21.12
2019-01-29T04:26:31.421Z,21.12
2019-01-29T04:27:31.418Z,21.11
2019-01-29T04:28:31.399Z,21.12
2019-01-29T04:29:31.390Z,21.11
2019-01-29T04:30:31.380Z,21.11
2019-01-29T04:31:31.403Z,21.12
2019-01-29T04:32:31.356Z,21.11
2019-01-29T04:33:31.345Z,21.11
2019-01-29T04:34:31.337Z,21.09
2019-01-29T04:35:31.323Z,21.12
2019-01-29T04:36:31.311Z,21.12
2019-01-29T04:37:31.540Z,21.11
2019-01-29T04:38:31.289Z,21.12
2019-01-29T04:39:31.278Z,21.11
2019-01-29T04:40:31.271Z,21.11
2019-01-29T04:41:31.257Z,21.12
2019-01-29T04:42:31.245Z,21.12
2019-01-29T04:43:31.273Z,21.11
2019-01-29T04:44:31.223Z,21.11
2019-01-29T04:45:31.213Z,21.12
2019-01-29T04:46:31.239Z,21.11
2019-01-29T04:47:31.194Z,21.11
2019-01-29T04:48:31.180Z,21.11
2019-01-29T04:49:31.169Z,21.12
2019-01-29T04:50:31.158Z,21.12
2019-01-29T04:51:31.147Z,21.14
2019-01-29T04:52:31.171Z,21.12
2019-01-29T04:53:31.126Z,21.15
2019-01-29T04:54:31.118Z,21.15
2019-01-29T04:55:31.103Z,21.17
2019-01-29T04:56:31.092Z,21.18
2019-01-29T04:57:31.116Z,21.21
2019-01-29T04:58:31.208Z,21.24
2019-01-29T04:59:31.059Z,21.25
2019-01-29T05:00:31.049Z,21.30
2019-01-29T05:01:31.039Z,21.32
2019-01-29T05:02:31.026Z,21.36
2019-01-29T05:03:31.050Z,21.39
2019-01-29T05:04:31.005Z,21.43
2019-01-29T05:05:30.995Z,21.45
2019-01-29T05:06:30.983Z,21.51
2019-01-29T05:07:30.972Z,21.52
2019-01-29T05:08:30.961Z,21.55
2019-01-29T05:09:30.985Z,21.58
2019-01-29T05:10:30.938Z,21.61
2019-01-29T05:11:30.928Z,21.64
2019-01-29T05:12:30.917Z,21.69
2019-01-29T05:13:30.909Z,21.67
2019-01-29T05:14:30.936Z,21.70
2019-01-29T05:15:30.887Z,21.73
2019-01-29T05:16:30.885Z,21.73
2019-01-29T05:17:30.863Z,21.75
2019-01-29T05:18:32.269Z,21.77
2019-01-29T05:19:30.844Z,21.79
2019-01-29T05:20:30.872Z,21.79
2019-01-29T05:21:30.821Z,21.80
2019-01-29T05:22:30.812Z,21.79
2019-01-29T05:23:30.798Z,21.82
2019-01-29T05:24:30.789Z,21.82
2019-01-29T05:25:30.779Z,21.82
2019-01-29T05:26:31.064Z,21.83
2019-01-29T05:27:30.757Z,21.82
2019-01-29T05:28:30.745Z,21.82
2019-01-29T05:29:30.735Z,21.83
2019-01-29T05:30:30.724Z,21.83
2019-01-29T05:31:30.713Z,21.83
2019-01-29T05:32:30.736Z,21.82
2019-01-29T05:33:30.693Z,21.82
2019-01-29T05:34:30.680Z,21.82
2019-01-29T05:35:30.707Z,21.83
2019-01-29T05:36:30.695Z,21.80
2019-01-29T05:37:30.650Z,21.82
2019-01-29T05:38:30.637Z,21.80
2019-01-29T05:39:30.625Z,21.82
2019-01-29T05:40:30.624Z,21.80
2019-01-29T05:41:30.604Z,21.80
2019-01-29T05:42:30.628Z,21.79
2019-01-29T05:43:30.582Z,21.77
2019-01-29T05:44:30.572Z,21.77
2019-01-29T05:45:30.563Z,21.77
2019-01-29T05:46:30.552Z,21.77
2019-01-29T05:47:30.540Z,21.76
2019-01-29T05:48:30.563Z,21.76
2019-01-29T05:49:30.563Z,21.77
2019-01-29T05:50:30.507Z,21.76
2019-01-29T05:51:30.496Z,21.73
2019-01-29T05:52:30.485Z,21.73
2019-01-29T05:53:30.476Z,21.72
2019-01-29T05:54:30.500Z,21.73
2019-01-29T05:55:30.455Z,21.72
2019-01-29T05:56:30.443Z,21.72
2019-01-29T05:57:30.432Z,21.70
2019-01-29T05:58:30.421Z,21.70
2019-01-29T05:59:30.410Z,21.69
2019-01-29T06:00:30.432Z,21.70
2019-01-29T06:01:30.388Z,21.70
2019-01-29T06:02:30.410Z,21.67
2019-01-29T06:03:30.368Z,21.67
2019-01-29T06:04:30.355Z,21.67
2019-01-29T06:05:30.344Z,21.66
2019-01-29T06:06:30.334Z,21.66
2019-01-29T06:07:30.324Z,21.64
2019-01-29T06:08:30.350Z,21.64
2019-01-29T06:09:30.303Z,21.64
2019-01-29T06:10:30.295Z,21.64
2019-01-29T06:11:30.281Z,21.62
2019-01-29T06:12:30.268Z,21.64
2019-01-29T06:13:30.261Z,21.61
2019-01-29T06:14:30.286Z,21.61
2019-01-29T06:15:30.236Z,21.60
2019-01-29T06:16:30.225Z,21.61
2019-01-29T06:17:30.215Z,21.60
2019-01-29T06:18:30.206Z,21.60
2019-01-29T06:19:30.195Z,21.60
2019-01-29T06:20:30.218Z,21.58
2019-01-29T06:21:30.173Z,21.60
2019-01-29T06:22:30.161Z,21.58
2019-01-29T06:23:30.151Z,21.58
2019-01-29T06:24:30.211Z,21.57
2019-01-29T06:25:30.167Z,21.57
2019-01-29T06:26:30.121Z,21.55
2019-01-29T06:27:30.107Z,21.55
2019-01-29T06:28:30.097Z,21.54
2019-01-29T06:29:30.086Z,21.52
2019-01-29T06:30:30.111Z,21.52
2019-01-29T06:31:30.065Z,21.51
2019-01-29T06:32:30.054Z,21.52
2019-01-29T06:33:30.043Z,21.52
2019-01-29T06:34:30.033Z,21.52
2019-01-29T06:35:30.022Z,21.51
2019-01-29T06:36:30.044Z,21.51
2019-01-29T06:37:30.002Z,21.51
2019-01-29T06:38:29.988Z,21.50
2019-01-29T06:39:29.978Z,21.51
2019-01-29T06:40:29.965Z,21.51
2019-01-29T06:41:30.213Z,21.51
2019-01-29T06:42:29.945Z,21.51
2019-01-29T06:43:29.933Z,21.50
2019-01-29T06:44:29.924Z,21.51
2019-01-29T06:45:29.912Z,21.51
2019-01-29T06:46:29.902Z,21.50
2019-01-29T06:47:30.115Z,21.51
2019-01-29T06:48:29.881Z,21.52
2019-01-29T06:49:29.872Z,21.52
2019-01-29T06:50:29.858Z,21.52
2019-01-29T06:51:29.848Z,21.54
2019-01-29T06:52:29.838Z,21.55
2019-01-29T06:53:29.862Z,21.55
2019-01-29T06:54:34.214Z,21.55
2019-01-29T06:55:29.804Z,21.57
2019-01-29T06:56:29.859Z,21.58
2019-01-29T06:57:29.783Z,21.58
2019-01-29T06:58:29.808Z,21.60
2019-01-29T06:59:29.764Z,21.61
2019-01-29T07:00:29.753Z,21.62
2019-01-29T07:01:29.743Z,21.64
2019-01-29T07:02:29.731Z,21.64
2019-01-29T07:03:29.758Z,21.66
2019-01-29T07:04:29.712Z,21.67
2019-01-29T07:05:29.698Z,21.69
2019-01-29T07:06:29.687Z,21.69
2019-01-29T07:07:29.680Z,21.72
2019-01-29T07:08:29.665Z,21.72
2019-01-29T07:09:29.694Z,21.73
2019-01-29T07:10:29.644Z,21.73
2019-01-29T07:11:29.635Z,21.75
2019-01-29T07:12:29.623Z,21.76
2019-01-29T07:13:29.612Z,21.76
2019-01-29T07:14:29.713Z,21.77
2019-01-29T07:15:29.590Z,21.76
2019-01-29T07:16:29.582Z,21.77
2019-01-29T07:17:29.573Z,21.77
2019-01-29T07:18:29.559Z,21.79
2019-01-29T07:19:29.548Z,21.79
2019-01-29T07:20:29.640Z,21.79
2019-01-29T07:21:29.530Z,21.80
2019-01-29T07:22:29.515Z,21.79
2019-01-29T07:23:29.508Z,21.79
2019-01-29T07:24:29.495Z,21.79
2019-01-29T07:25:29.484Z,21.79
2019-01-29T07:26:29.517Z,21.80
2019-01-29T07:27:29.465Z,21.80
2019-01-29T07:28:29.451Z,21.79
2019-01-29T07:29:29.441Z,21.79
2019-01-29T07:30:29.461Z,21.79
2019-01-29T07:31:29.419Z,21.79
2019-01-29T07:32:29.444Z,21.79
2019-01-29T07:33:29.431Z,21.77
2019-01-29T07:34:29.388Z,21.79
2019-01-29T07:35:29.378Z,21.77
2019-01-29T07:36:29.366Z,21.77
2019-01-29T07:37:29.355Z,21.75
2019-01-29T07:38:29.381Z,21.77
2019-01-29T07:39:29.367Z,21.77
2019-01-29T07:40:29.322Z,21.76
2019-01-29T07:41:29.313Z,21.75
2019-01-29T07:42:29.303Z,21.75
2019-01-29T07:43:29.293Z,21.75
2019-01-29T07:44:29.322Z,21.73
2019-01-29T07:45:29.269Z,21.73
2019-01-29T07:46:29.264Z,21.75
2019-01-29T07:47:29.246Z,21.73
2019-01-29T07:48:29.271Z,21.72
2019-01-29T07:49:29.226Z,21.72
2019-01-29T07:50:29.226Z,21.72
2019-01-29T07:51:29.206Z,21.72
2019-01-29T07:52:29.196Z,21.70
2019-01-29T07:53:29.183Z,21.70
2019-01-29T07:54:33.459Z,21.70
2019-01-29T07:55:29.167Z,21.69
2019-01-29T07:56:29.190Z,21.70
2019-01-29T07:57:29.138Z,21.70
2019-01-29T07:58:29.127Z,21.67
2019-01-29T07:59:33.238Z,21.67
2019-01-29T08:00:29.144Z,21.67
2019-01-29T08:01:29.130Z,21.67
2019-01-29T08:02:29.145Z,21.66
2019-01-29T08:03:29.075Z,21.67
2019-01-29T08:04:29.065Z,21.66
2019-01-29T08:05:29.053Z,21.64
2019-01-29T08:06:29.040Z,21.66
2019-01-29T08:07:29.227Z,21.64
2019-01-29T08:08:29.018Z,21.64
2019-01-29T08:09:29.007Z,21.64
2019-01-29T08:10:28.996Z,21.64
2019-01-29T08:11:28.986Z,21.62
2019-01-29T08:12:28.976Z,21.62
2019-01-29T08:13:28.997Z,21.62
2019-01-29T08:14:28.953Z,21.62
2019-01-29T08:15:28.943Z,21.62
2019-01-29T08:16:28.935Z,21.62
2019-01-29T08:17:28.924Z,21.61
2019-01-29T08:18:28.948Z,21.62
2019-01-29T08:19:28.905Z,21.62
2019-01-29T08:20:28.890Z,21.62
2019-01-29T08:21:28.884Z,21.62
2019-01-29T08:22:28.867Z,21.62
2019-01-29T08:23:28.857Z,21.62
2019-01-29T08:24:28.881Z,21.62
2019-01-29T08:25:28.835Z,21.62
2019-01-29T08:26:28.858Z,21.62
2019-01-29T08:27:28.812Z,21.64
2019-01-29T08:28:28.848Z,21.62
2019-01-29T08:29:30.663Z,21.62
2019-01-29T08:30:28.781Z,21.62
2019-01-29T08:31:28.770Z,21.64
2019-01-29T08:32:28.760Z,21.64
2019-01-29T08:33:28.749Z,21.64
2019-01-29T08:34:28.739Z,21.64
2019-01-29T08:35:28.765Z,21.64
2019-01-29T08:36:28.720Z,21.64
2019-01-29T08:37:28.711Z,21.66
2019-01-29T08:38:28.703Z,21.64
2019-01-29T08:39:28.685Z,21.67
2019-01-29T08:40:28.717Z,21.66
2019-01-29T08:41:28.665Z,21.66
2019-01-29T08:42:28.656Z,21.66
2019-01-29T08:43:28.645Z,21.66
2019-01-29T08:44:28.635Z,21.67
2019-01-29T08:45:28.619Z,21.67
2019-01-29T08:46:28.647Z,21.66
2019-01-29T08:47:28.601Z,21.67
2019-01-29T08:48:28.589Z,21.67
2019-01-29T08:49:28.577Z,21.67
2019-01-29T08:50:28.791Z,21.69
2019-01-29T08:51:28.556Z,21.67
2019-01-29T08:52:28.546Z,21.67
2019-01-29T08:53:28.534Z,21.69
2019-01-29T08:54:28.523Z,21.67
2019-01-29T08:55:28.514Z,21.67
2019-01-29T08:56:28.538Z,21.69
2019-01-29T08:57:28.494Z,21.69
2019-01-29T08:58:28.481Z,21.67
2019-01-29T08:59:28.469Z,21.67
2019-01-29T09:00:28.462Z,21.67
2019-01-29T09:01:28.448Z,21.67
2019-01-29T09:02:28.475Z,21.69
2019-01-29T09:03:28.427Z,21.67
2019-01-29T09:04:28.416Z,21.67
2019-01-29T09:05:28.414Z,21.67
2019-01-29T09:06:28.400Z,21.67
2019-01-29T09:07:28.423Z,21.67
2019-01-29T09:08:28.374Z,21.66
2019-01-29T09:09:28.363Z,21.67
2019-01-29T09:10:28.352Z,21.66
2019-01-29T09:11:28.341Z,21.66
2019-01-29T09:12:28.330Z,21.67
2019-01-29T09:13:28.355Z,21.66
2019-01-29T09:14:28.309Z,21.64
2019-01-29T09:15:28.298Z,21.62
2019-01-29T09:16:28.288Z,21.64
2019-01-29T09:17:28.311Z,21.67
2019-01-29T09:18:28.266Z,21.66
2019-01-29T09:19:28.255Z,21.67
2019-01-29T09:20:28.245Z,21.66
2019-01-29T09:21:28.232Z,21.66
2019-01-29T09:22:28.259Z,21.66
2019-01-29T09:23:28.214Z,21.67
2019-01-29T09:24:28.208Z,21.66
2019-01-29T09:25:28.192Z,21.66
2019-01-29T09:26:28.181Z,21.66
2019-01-29T09:27:28.214Z,21.66
2019-01-29T09:28:28.161Z,21.67
2019-01-29T09:29:28.149Z,21.64
2019-01-29T09:30:28.138Z,21.67
2019-01-29T09:31:28.127Z,21.67
2019-01-29T09:32:28.117Z,21.66
2019-01-29T09:33:28.142Z,21.67
2019-01-29T09:34:28.102Z,21.64
2019-01-29T09:35:28.086Z,21.67
2019-01-29T09:36:28.074Z,21.66
2019-01-29T09:37:28.065Z,21.67
2019-01-29T09:38:28.279Z,21.66
2019-01-29T09:39:28.043Z,21.64
2019-01-29T09:40:28.031Z,21.66
2019-01-29T09:41:28.023Z,21.64
2019-01-29T09:42:28.011Z,21.66
2019-01-29T09:43:28.000Z,21.69
2019-01-29T09:44:28.022Z,21.66
2019-01-29T09:45:27.978Z,21.66
2019-01-29T09:46:27.969Z,21.66
2019-01-29T09:47:27.958Z,21.66
2019-01-29T09:48:27.946Z,21.66
2019-01-29T09:49:27.976Z,21.67
2019-01-29T09:50:27.928Z,21.66
2019-01-29T09:51:27.918Z,21.66
2019-01-29T09:52:27.903Z,21.66
2019-01-29T09:53:27.895Z,21.66
2019-01-29T09:54:27.918Z,21.66
2019-01-29T09:55:29.526Z,21.66
2019-01-29T09:56:27.861Z,21.67
2019-01-29T09:57:27.855Z,21.66
2019-01-29T09:58:27.838Z,21.66
2019-01-29T09:59:27.830Z,21.66
2019-01-29T10:00:27.851Z,21.66
2019-01-29T10:01:27.807Z,21.66
2019-01-29T10:02:27.798Z,21.64
2019-01-29T10:03:27.785Z,21.64
2019-01-29T10:04:27.776Z,21.64
2019-01-29T10:05:27.799Z,21.66
2019-01-29T10:06:27.795Z,21.66
2019-01-29T10:07:27.742Z,21.64
2019-01-29T10:08:27.733Z,21.66
2019-01-29T10:09:27.727Z,21.66
2019-01-29T10:10:27.713Z,21.62
2019-01-29T10:11:28.626Z,21.64
2019-01-29T10:12:27.691Z,21.62
2019-01-29T10:13:27.679Z,21.62
2019-01-29T10:14:27.669Z,21.62
2019-01-29T10:15:27.665Z,21.64
2019-01-29T10:16:27.682Z,21.62
2019-01-29T10:17:27.642Z,21.62
2019-01-29T10:18:27.625Z,21.62
2019-01-29T10:19:27.615Z,21.61
2019-01-29T10:20:27.603Z,21.62
2019-01-29T10:21:27.632Z,21.62
2019-01-29T10:22:27.585Z,21.61
2019-01-29T10:23:27.607Z,21.61
2019-01-29T10:24:27.561Z,21.61
2019-01-29T10:25:27.551Z,21.61
2019-01-29T10:26:27.541Z,21.61
2019-01-29T10:27:27.530Z,21.61
2019-01-29T10:28:27.517Z,21.61
2019-01-29T10:29:27.544Z,21.61
2019-01-29T10:30:27.493Z,21.61
2019-01-29T10:31:27.486Z,21.60
2019-01-29T10:32:27.475Z,21.61
2019-01-29T10:33:27.464Z,21.61
2019-01-29T10:34:27.494Z,21.61
2019-01-29T10:35:27.440Z,21.60
2019-01-29T10:36:27.430Z,21.60
2019-01-29T10:37:27.422Z,21.61
2019-01-29T10:38:27.409Z,21.60
2019-01-29T10:39:27.398Z,21.60
2019-01-29T10:40:27.428Z,21.61
2019-01-29T10:41:27.375Z,21.60
2019-01-29T10:42:27.364Z,21.61
2019-01-29T10:43:27.355Z,21.61
2019-01-29T10:44:27.345Z,21.61
2019-01-29T10:45:27.336Z,21.62
2019-01-29T10:46:27.628Z,21.61
2019-01-29T10:47:27.311Z,21.62
2019-01-29T10:48:27.302Z,21.62
2019-01-29T10:49:27.326Z,21.62
2019-01-29T10:50:27.281Z,21.62
2019-01-29T10:51:27.268Z,21.64
2019-01-29T10:52:27.297Z,21.66
2019-01-29T10:53:27.284Z,21.64
2019-01-29T10:54:27.236Z,21.66
2019-01-29T10:55:27.225Z,21.66
2019-01-29T10:56:27.215Z,21.66
2019-01-29T10:57:27.203Z,21.67
2019-01-29T10:58:27.237Z,21.67
2019-01-29T10:59:27.182Z,21.67
2019-01-29T11:00:27.171Z,21.69
2019-01-29T11:01:27.161Z,21.69
2019-01-29T11:02:27.146Z,21.70
2019-01-29T11:03:27.136Z,21.69
2019-01-29T11:04:27.162Z,21.70
2019-01-29T11:05:27.112Z,21.70
2019-01-29T11:06:27.104Z,21.72
2019-01-29T11:07:27.158Z,21.73
2019-01-29T11:08:27.228Z,21.72
2019-01-29T11:09:27.072Z,21.72
2019-01-29T11:10:27.060Z,21.72
2019-01-29T11:11:27.051Z,21.73
2019-01-29T11:12:27.039Z,21.72
2019-01-29T11:13:27.027Z,21.73
2019-01-29T11:14:27.050Z,21.73
2019-01-29T11:15:27.007Z,21.75
2019-01-29T11:16:26.995Z,21.73
2019-01-29T11:17:26.983Z,21.73
2019-01-29T11:18:26.971Z,21.75
2019-01-29T11:19:26.998Z,21.73
2019-01-29T11:20:26.988Z,21.73
2019-01-29T11:21:26.940Z,21.76
2019-01-29T11:22:26.930Z,21.75
2019-01-29T11:23:26.918Z,21.75
2019-01-29T11:24:26.908Z,21.75
2019-01-29T11:25:27.193Z,21.75
2019-01-29T11:26:26.887Z,21.75
2019-01-29T11:27:26.873Z,21.75
2019-01-29T11:28:26.862Z,21.75
2019-01-29T11:29:26.866Z,21.75
2019-01-29T11:30:26.841Z,21.75
2019-01-29T11:31:26.868Z,21.75
2019-01-29T11:32:26.819Z,21.75
2019-01-29T11:33:26.809Z,21.73
2019-01-29T11:34:26.797Z,21.73
2019-01-29T11:35:26.786Z,21.73
2019-01-29T11:36:26.812Z,21.72
2019-01-29T11:37:26.762Z,21.70
2019-01-29T11:38:26.751Z,21.72
2019-01-29T11:39:26.743Z,21.70
2019-01-29T11:40:26.730Z,21.70
2019-01-29T11:41:26.721Z,21.70
2019-01-29T11:42:26.948Z,21.69
2019-01-29T11:43:26.709Z,21.69
2019-01-29T11:44:26.686Z,21.69
2019-01-29T11:45:26.678Z,21.69
2019-01-29T11:46:26.664Z,21.69
2019-01-29T11:47:26.657Z,21.67
2019-01-29T11:48:27.026Z,21.69
2019-01-29T11:49:26.632Z,21.69
2019-01-29T11:50:26.628Z,21.67
2019-01-29T11:51:26.612Z,21.67
2019-01-29T11:52:26.610Z,21.67
2019-01-29T11:53:26.590Z,21.67
2019-01-29T11:54:26.617Z,21.67
2019-01-29T11:55:26.569Z,21.67
2019-01-29T11:56:26.562Z,21.69
2019-01-29T11:57:26.546Z,21.66
2019-01-29T11:58:26.536Z,21.67
2019-01-29T11:59:26.558Z,21.66
2019-01-29T12:00:26.515Z,21.67
2019-01-29T12:01:26.541Z,21.66
2019-01-29T12:02:28.496Z,21.66
2019-01-29T12:03:26.483Z,21.67
2019-01-29T12:04:26.472Z,21.66
2019-01-29T12:05:26.461Z,21.66
2019-01-29T12:06:26.452Z,21.66
2019-01-29T12:07:26.476Z,21.67
2019-01-29T12:08:26.428Z,21.67
2019-01-29T12:09:26.417Z,21.67
2019-01-29T12:10:26.410Z,21.66
2019-01-29T12:11:26.398Z,21.67
2019-01-29T12:12:26.386Z,21.67
2019-01-29T12:13:26.414Z,21.69
2019-01-29T12:14:26.372Z,21.67
2019-01-29T12:15:26.354Z,21.69
2019-01-29T12:16:26.344Z,21.69
2019-01-29T12:17:26.333Z,21.70
2019-01-29T12:18:26.322Z,21.69
2019-01-29T12:19:26.357Z,21.67
2019-01-29T12:20:26.334Z,21.69
2019-01-29T12:21:26.291Z,21.72
2019-01-29T12:22:26.281Z,21.72
2019-01-29T12:23:26.268Z,21.70
2019-01-29T12:24:26.257Z,21.73
2019-01-29T12:25:26.280Z,21.75
2019-01-29T12:26:26.236Z,21.73
2019-01-29T12:27:26.225Z,21.72
2019-01-29T12:28:26.216Z,21.73
2019-01-29T12:29:26.243Z,21.73
2019-01-29T12:30:26.195Z,21.73
2019-01-29T12:31:26.183Z,21.72
2019-01-29T12:32:26.197Z,21.72
2019-01-29T12:33:26.160Z,21.70
2019-01-29T12:34:26.193Z,21.70
2019-01-29T12:35:26.140Z,21.70
2019-01-29T12:36:26.129Z,21.72
2019-01-29T12:37:26.120Z,21.69
2019-01-29T12:38:26.112Z,21.70
2019-01-29T12:39:26.095Z,21.69
2019-01-29T12:40:26.343Z,21.70
2019-01-29T12:41:26.074Z,21.70
2019-01-29T12:42:26.063Z,21.69
2019-01-29T12:43:26.052Z,21.67
2019-01-29T12:44:26.042Z,21.67
2019-01-29T12:45:26.030Z,21.67
2019-01-29T12:46:26.235Z,21.66
2019-01-29T12:47:26.015Z,21.66
2019-01-29T12:48:25.999Z,21.66
2019-01-29T12:49:25.985Z,21.66
2019-01-29T12:50:25.976Z,21.66
2019-01-29T12:51:26.000Z,21.64
2019-01-29T12:52:25.953Z,21.66
2019-01-29T12:53:25.942Z,21.66
2019-01-29T12:54:25.932Z,21.66
2019-01-29T12:55:25.917Z,21.66
2019-01-29T12:56:25.908Z,21.64